sensor_id;sensor_type;location;lat;lon;timestamp;P1;durP1;ratioP1;P2;durP2;ratioP2
35743;SDS011;21867;52.012;4.324;2023-02-04T00:04:42;18.40;;;5.50;;
35743;SDS011;21867;52.012;4.324;2023-02-04T00:07:10;9.93;;;4.37;;
35743;SDS011;21867;52.012;4.324;2023-02-04T00:09:37;17.87;;;6.10;;
35743;SDS011;21867;52.012;4.324;2023-02-04T00:12:04;9.37;;;4.30;;
35743;SDS011;21867;52.012;4.324;2023-02-04T00:14:32;12.63;;;4.83;;
35743;SDS011;21867;52.012;4.324;2023-02-04T00:26:28;15.80;;;5.43;;
35743;SDS011;21867;52.012;4.324;2023-02-04T00:28:55;12.03;;;4.37;;
35743;SDS011;21867;52.012;4.324;2023-02-04T00:31:23;14.27;;;5.53;;
35743;SDS011;21867;52.012;4.324;2023-02-04T00:33:55;13.10;;;4.03;;
35743;SDS011;21867;52.012;4.324;2023-02-04T00:36:23;13.50;;;4.70;;
35743;SDS011;21867;52.012;4.324;2023-02-04T00:38:50;17.53;;;4.63;;
35743;SDS011;21867;52.012;4.324;2023-02-04T00:41:17;27.97;;;5.73;;
35743;SDS011;21867;52.012;4.324;2023-02-04T00:43:46;15.37;;;5.03;;
35743;SDS011;21867;52.012;4.324;2023-02-04T00:46:13;16.43;;;5.03;;
35743;SDS011;21867;52.012;4.324;2023-02-04T00:48:41;20.13;;;5.10;;
35743;SDS011;21867;52.012;4.324;2023-02-04T00:51:08;14.70;;;4.70;;
35743;SDS011;21867;52.012;4.324;2023-02-04T00:53:37;19.00;;;5.33;;
35743;SDS011;21867;52.012;4.324;2023-02-04T00:56:04;19.07;;;5.63;;
35743;SDS011;21867;52.012;4.324;2023-02-04T00:58:31;17.40;;;5.77;;
35743;SDS011;21867;52.012;4.324;2023-02-04T01:01:00;18.30;;;5.67;;
35743;SDS011;21867;52.012;4.324;2023-02-04T01:03:27;16.37;;;3.97;;
35743;SDS011;21867;52.012;4.324;2023-02-04T01:05:55;17.37;;;4.93;;
35743;SDS011;21867;52.012;4.324;2023-02-04T01:08:22;11.13;;;4.73;;
35743;SDS011;21867;52.012;4.324;2023-02-04T01:10:49;18.13;;;5.50;;
35743;SDS011;21867;52.012;4.324;2023-02-04T01:13:17;14.27;;;5.60;;
35743;SDS011;21867;52.012;4.324;2023-02-04T01:15:44;11.43;;;4.43;;
35743;SDS011;21867;52.012;4.324;2023-02-04T01:18:20;19.90;;;4.97;;
35743;SDS011;21867;52.012;4.324;2023-02-04T01:20:47;14.00;;;4.43;;
35743;SDS011;21867;52.012;4.324;2023-02-04T01:23:15;15.83;;;4.33;;
35743;SDS011;21867;52.012;4.324;2023-02-04T01:25:42;22.57;;;6.13;;
35743;SDS011;21867;52.012;4.324;2023-02-04T01:34:37;17.60;;;4.63;;
35743;SDS011;21867;52.012;4.324;2023-02-04T01:37:04;20.73;;;4.53;;
35743;SDS011;21867;52.012;4.324;2023-02-04T01:39:31;16.50;;;4.40;;
35743;SDS011;21867;52.012;4.324;2023-02-04T01:41:59;18.70;;;5.83;;
35743;SDS011;21867;52.012;4.324;2023-02-04T01:44:26;15.53;;;4.90;;
35743;SDS011;21867;52.012;4.324;2023-02-04T01:49:38;19.53;;;4.37;;
35743;SDS011;21867;52.012;4.324;2023-02-04T01:52:06;22.73;;;5.50;;
35743;SDS011;21867;52.012;4.324;2023-02-04T01:54:33;16.47;;;3.97;;
35743;SDS011;21867;52.012;4.324;2023-02-04T01:57:00;18.83;;;4.83;;
35743;SDS011;21867;52.012;4.324;2023-02-04T01:59:28;22.73;;;4.90;;
35743;SDS011;21867;52.012;4.324;2023-02-04T02:09:22;16.43;;;5.00;;
35743;SDS011;21867;52.012;4.324;2023-02-04T02:11:49;23.27;;;6.23;;
35743;SDS011;21867;52.012;4.324;2023-02-04T02:14:17;15.23;;;4.87;;
35743;SDS011;21867;52.012;4.324;2023-02-04T02:16:45;15.27;;;4.87;;
35743;SDS011;21867;52.012;4.324;2023-02-04T02:19:14;13.70;;;4.20;;
35743;SDS011;21867;52.012;4.324;2023-02-04T02:24:35;15.53;;;4.63;;
35743;SDS011;21867;52.012;4.324;2023-02-04T02:27:03;22.23;;;5.40;;
35743;SDS011;21867;52.012;4.324;2023-02-04T02:29:31;22.87;;;7.00;;
35743;SDS011;21867;52.012;4.324;2023-02-04T02:38:43;17.23;;;5.00;;
35743;SDS011;21867;52.012;4.324;2023-02-04T02:41:12;16.13;;;3.97;;
35743;SDS011;21867;52.012;4.324;2023-02-04T02:43:39;12.40;;;4.03;;
35743;SDS011;21867;52.012;4.324;2023-02-04T02:46:07;14.53;;;5.30;;
35743;SDS011;21867;52.012;4.324;2023-02-04T02:48:34;20.27;;;5.33;;
35743;SDS011;21867;52.012;4.324;2023-02-04T02:53:57;14.10;;;3.63;;
35743;SDS011;21867;52.012;4.324;2023-02-04T02:56:26;15.67;;;4.50;;
35743;SDS011;21867;52.012;4.324;2023-02-04T02:58:53;14.20;;;4.83;;
35743;SDS011;21867;52.012;4.324;2023-02-04T03:01:21;18.00;;;5.00;;
35743;SDS011;21867;52.012;4.324;2023-02-04T03:03:49;20.07;;;5.47;;
35743;SDS011;21867;52.012;4.324;2023-02-04T03:13:35;18.93;;;5.03;;
35743;SDS011;21867;52.012;4.324;2023-02-04T03:16:02;18.17;;;5.80;;
35743;SDS011;21867;52.012;4.324;2023-02-04T03:18:30;17.70;;;4.77;;
35743;SDS011;21867;52.012;4.324;2023-02-04T03:21:12;13.00;;;5.13;;
35743;SDS011;21867;52.012;4.324;2023-02-04T03:23:39;15.83;;;4.87;;
35743;SDS011;21867;52.012;4.324;2023-02-04T03:26:07;15.37;;;5.33;;
35743;SDS011;21867;52.012;4.324;2023-02-04T03:28:39;17.67;;;5.17;;
35743;SDS011;21867;52.012;4.324;2023-02-04T03:31:07;15.93;;;4.40;;
35743;SDS011;21867;52.012;4.324;2023-02-04T03:33:34;25.20;;;5.07;;
35743;SDS011;21867;52.012;4.324;2023-02-04T03:38:39;19.63;;;4.97;;
35743;SDS011;21867;52.012;4.324;2023-02-04T03:41:07;13.17;;;4.20;;
35743;SDS011;21867;52.012;4.324;2023-02-04T03:43:34;17.10;;;4.47;;
35743;SDS011;21867;52.012;4.324;2023-02-04T03:46:02;23.53;;;6.73;;
35743;SDS011;21867;52.012;4.324;2023-02-04T03:48:30;20.83;;;5.33;;
35743;SDS011;21867;52.012;4.324;2023-02-04T03:50:57;14.33;;;4.17;;
35743;SDS011;21867;52.012;4.324;2023-02-04T04:00:03;16.47;;;5.43;;
35743;SDS011;21867;52.012;4.324;2023-02-04T04:02:38;17.83;;;4.63;;
35743;SDS011;21867;52.012;4.324;2023-02-04T04:05:06;18.10;;;5.77;;
35743;SDS011;21867;52.012;4.324;2023-02-04T04:07:38;23.43;;;5.13;;
35743;SDS011;21867;52.012;4.324;2023-02-04T04:10:05;13.97;;;5.27;;
35743;SDS011;21867;52.012;4.324;2023-02-04T04:12:33;29.10;;;6.57;;
35743;SDS011;21867;52.012;4.324;2023-02-04T04:15:00;19.53;;;6.57;;
35743;SDS011;21867;52.012;4.324;2023-02-04T04:17:27;18.77;;;4.93;;
35743;SDS011;21867;52.012;4.324;2023-02-04T04:19:56;17.20;;;5.27;;
35743;SDS011;21867;52.012;4.324;2023-02-04T04:25:13;24.63;;;6.87;;
35743;SDS011;21867;52.012;4.324;2023-02-04T04:27:40;25.97;;;5.93;;
35743;SDS011;21867;52.012;4.324;2023-02-04T04:30:08;16.90;;;5.33;;
35743;SDS011;21867;52.012;4.324;2023-02-04T04:39:02;17.40;;;5.57;;
35743;SDS011;21867;52.012;4.324;2023-02-04T04:41:30;23.57;;;5.17;;
35743;SDS011;21867;52.012;4.324;2023-02-04T04:43:57;25.93;;;7.40;;
35743;SDS011;21867;52.012;4.324;2023-02-04T04:46:24;23.70;;;5.60;;
35743;SDS011;21867;52.012;4.324;2023-02-04T04:48:51;25.63;;;5.53;;
35743;SDS011;21867;52.012;4.324;2023-02-04T04:54:06;27.20;;;5.60;;
35743;SDS011;21867;52.012;4.324;2023-02-04T04:56:33;21.73;;;5.70;;
35743;SDS011;21867;52.012;4.324;2023-02-04T04:59:01;26.23;;;5.83;;
35743;SDS011;21867;52.012;4.324;2023-02-04T05:07:53;24.20;;;6.37;;
35743;SDS011;21867;52.012;4.324;2023-02-04T05:10:21;26.17;;;6.03;;
35743;SDS011;21867;52.012;4.324;2023-02-04T05:12:49;26.37;;;5.73;;
35743;SDS011;21867;52.012;4.324;2023-02-04T05:15:16;21.97;;;7.67;;
35743;SDS011;21867;52.012;4.324;2023-02-04T05:17:44;27.23;;;6.67;;
35743;SDS011;21867;52.012;4.324;2023-02-04T05:22:57;26.77;;;6.70;;
35743;SDS011;21867;52.012;4.324;2023-02-04T05:25:26;18.40;;;5.40;;
35743;SDS011;21867;52.012;4.324;2023-02-04T05:27:53;24.53;;;6.73;;
35743;SDS011;21867;52.012;4.324;2023-02-04T05:37:09;20.77;;;5.87;;
35743;SDS011;21867;52.012;4.324;2023-02-04T05:39:37;16.77;;;6.23;;
35743;SDS011;21867;52.012;4.324;2023-02-04T05:42:05;17.67;;;5.30;;
35743;SDS011;21867;52.012;4.324;2023-02-04T05:44:33;16.17;;;4.63;;
35743;SDS011;21867;52.012;4.324;2023-02-04T05:47:00;14.93;;;5.40;;
35743;SDS011;21867;52.012;4.324;2023-02-04T05:49:27;23.20;;;6.60;;
35743;SDS011;21867;52.012;4.324;2023-02-04T05:52:00;18.20;;;6.67;;
35743;SDS011;21867;52.012;4.324;2023-02-04T05:54:27;15.57;;;4.97;;
35743;SDS011;21867;52.012;4.324;2023-02-04T05:56:55;13.07;;;4.10;;
35743;SDS011;21867;52.012;4.324;2023-02-04T05:59:23;22.43;;;5.83;;
35743;SDS011;21867;52.012;4.324;2023-02-04T06:08:36;17.80;;;5.00;;
35743;SDS011;21867;52.012;4.324;2023-02-04T06:11:04;18.90;;;5.47;;
35743;SDS011;21867;52.012;4.324;2023-02-04T06:13:31;16.63;;;5.17;;
35743;SDS011;21867;52.012;4.324;2023-02-04T06:16:00;15.03;;;5.20;;
35743;SDS011;21867;52.012;4.324;2023-02-04T06:18:27;17.00;;;5.40;;
35743;SDS011;21867;52.012;4.324;2023-02-04T06:23:41;18.87;;;5.43;;
35743;SDS011;21867;52.012;4.324;2023-02-04T06:26:08;23.90;;;6.70;;
35743;SDS011;21867;52.012;4.324;2023-02-04T06:28:36;23.93;;;6.30;;
35743;SDS011;21867;52.012;4.324;2023-02-04T06:37:13;21.33;;;5.33;;
35743;SDS011;21867;52.012;4.324;2023-02-04T06:39:40;18.20;;;5.50;;
35743;SDS011;21867;52.012;4.324;2023-02-04T06:42:07;25.60;;;6.87;;
35743;SDS011;21867;52.012;4.324;2023-02-04T06:44:35;26.10;;;6.07;;
35743;SDS011;21867;52.012;4.324;2023-02-04T06:47:02;18.50;;;6.43;;
35743;SDS011;21867;52.012;4.324;2023-02-04T06:52:14;20.03;;;6.27;;
35743;SDS011;21867;52.012;4.324;2023-02-04T06:54:41;23.53;;;6.10;;
35743;SDS011;21867;52.012;4.324;2023-02-04T06:57:08;24.00;;;5.97;;
35743;SDS011;21867;52.012;4.324;2023-02-04T06:59:36;17.93;;;7.00;;
35743;SDS011;21867;52.012;4.324;2023-02-04T07:09:29;24.17;;;6.23;;
35743;SDS011;21867;52.012;4.324;2023-02-04T07:11:57;20.17;;;5.53;;
35743;SDS011;21867;52.012;4.324;2023-02-04T07:14:24;18.60;;;5.90;;
35743;SDS011;21867;52.012;4.324;2023-02-04T07:16:51;24.40;;;6.20;;
35743;SDS011;21867;52.012;4.324;2023-02-04T07:22:07;26.80;;;6.33;;
35743;SDS011;21867;52.012;4.324;2023-02-04T07:24:36;21.90;;;6.87;;
35743;SDS011;21867;52.012;4.324;2023-02-04T07:27:03;16.93;;;5.37;;
35743;SDS011;21867;52.012;4.324;2023-02-04T07:36:40;20.53;;;6.57;;
35743;SDS011;21867;52.012;4.324;2023-02-04T07:39:08;25.43;;;5.83;;
35743;SDS011;21867;52.012;4.324;2023-02-04T07:41:37;20.13;;;6.43;;
35743;SDS011;21867;52.012;4.324;2023-02-04T07:44:04;19.93;;;5.77;;
35743;SDS011;21867;52.012;4.324;2023-02-04T07:46:31;26.83;;;7.80;;
35743;SDS011;21867;52.012;4.324;2023-02-04T07:51:45;23.67;;;6.43;;
35743;SDS011;21867;52.012;4.324;2023-02-04T07:54:12;26.40;;;7.57;;
35743;SDS011;21867;52.012;4.324;2023-02-04T07:56:41;22.30;;;7.60;;
35743;SDS011;21867;52.012;4.324;2023-02-04T08:08:24;28.20;;;7.47;;
35743;SDS011;21867;52.012;4.324;2023-02-04T08:10:51;30.07;;;7.93;;
35743;SDS011;21867;52.012;4.324;2023-02-04T08:13:20;20.73;;;6.83;;
35743;SDS011;21867;52.012;4.324;2023-02-04T08:15:47;24.90;;;7.67;;
35743;SDS011;21867;52.012;4.324;2023-02-04T08:18:27;20.20;;;6.73;;
35743;SDS011;21867;52.012;4.324;2023-02-04T08:20:54;13.20;;;5.23;;
35743;SDS011;21867;52.012;4.324;2023-02-04T08:23:22;21.03;;;7.37;;
35743;SDS011;21867;52.012;4.324;2023-02-04T08:25:49;20.87;;;8.17;;
35743;SDS011;21867;52.012;4.324;2023-02-04T08:28:28;22.03;;;8.30;;
35743;SDS011;21867;52.012;4.324;2023-02-04T08:37:04;19.03;;;7.53;;
35743;SDS011;21867;52.012;4.324;2023-02-04T08:39:31;26.03;;;8.40;;
35743;SDS011;21867;52.012;4.324;2023-02-04T08:41:59;25.87;;;9.77;;
35743;SDS011;21867;52.012;4.324;2023-02-04T08:44:27;28.50;;;9.43;;
35743;SDS011;21867;52.012;4.324;2023-02-04T08:46:54;19.80;;;8.67;;
35743;SDS011;21867;52.012;4.324;2023-02-04T08:49:22;18.23;;;8.23;;
35743;SDS011;21867;52.012;4.324;2023-02-04T08:51:49;19.90;;;7.90;;
35743;SDS011;21867;52.012;4.324;2023-02-04T08:54:16;20.83;;;9.27;;
35743;SDS011;21867;52.012;4.324;2023-02-04T08:56:44;24.07;;;9.07;;
35743;SDS011;21867;52.012;4.324;2023-02-04T08:59:11;26.77;;;8.77;;
35743;SDS011;21867;52.012;4.324;2023-02-04T09:01:40;25.53;;;8.33;;
35743;SDS011;21867;52.012;4.324;2023-02-04T09:04:07;22.00;;;8.60;;
35743;SDS011;21867;52.012;4.324;2023-02-04T09:06:34;19.60;;;8.67;;
35743;SDS011;21867;52.012;4.324;2023-02-04T09:09:01;20.50;;;7.77;;
35743;SDS011;21867;52.012;4.324;2023-02-04T09:11:29;13.70;;;6.60;;
35743;SDS011;21867;52.012;4.324;2023-02-04T09:13:56;17.73;;;8.30;;
35743;SDS011;21867;52.012;4.324;2023-02-04T09:16:23;20.97;;;7.07;;
35743;SDS011;21867;52.012;4.324;2023-02-04T09:18:52;16.30;;;7.83;;
35743;SDS011;21867;52.012;4.324;2023-02-04T09:21:19;22.40;;;7.67;;
35743;SDS011;21867;52.012;4.324;2023-02-04T09:23:46;25.87;;;7.60;;
35743;SDS011;21867;52.012;4.324;2023-02-04T09:26:14;19.43;;;7.40;;
35743;SDS011;21867;52.012;4.324;2023-02-04T09:28:41;24.20;;;8.27;;
35743;SDS011;21867;52.012;4.324;2023-02-04T09:31:09;30.27;;;9.93;;
35743;SDS011;21867;52.012;4.324;2023-02-04T09:33:36;15.60;;;6.27;;
35743;SDS011;21867;52.012;4.324;2023-02-04T09:36:05;18.03;;;6.63;;
35743;SDS011;21867;52.012;4.324;2023-02-04T09:38:35;23.23;;;6.83;;
35743;SDS011;21867;52.012;4.324;2023-02-04T09:41:03;23.70;;;7.20;;
35743;SDS011;21867;52.012;4.324;2023-02-04T09:43:33;24.03;;;7.23;;
35743;SDS011;21867;52.012;4.324;2023-02-04T09:46:02;15.33;;;6.43;;
35743;SDS011;21867;52.012;4.324;2023-02-04T09:48:29;22.10;;;6.67;;
35743;SDS011;21867;52.012;4.324;2023-02-04T09:51:00;20.87;;;7.67;;
35743;SDS011;21867;52.012;4.324;2023-02-04T09:53:30;15.07;;;5.33;;
35743;SDS011;21867;52.012;4.324;2023-02-04T09:55:57;9.97;;;4.73;;
35743;SDS011;21867;52.012;4.324;2023-02-04T09:58:25;15.83;;;5.33;;
35743;SDS011;21867;52.012;4.324;2023-02-04T10:00:55;11.30;;;4.20;;
35743;SDS011;21867;52.012;4.324;2023-02-04T10:03:24;11.73;;;3.83;;
35743;SDS011;21867;52.012;4.324;2023-02-04T10:05:51;14.40;;;4.23;;
35743;SDS011;21867;52.012;4.324;2023-02-04T10:08:19;10.00;;;3.70;;
35743;SDS011;21867;52.012;4.324;2023-02-04T10:10:48;12.13;;;4.17;;
35743;SDS011;21867;52.012;4.324;2023-02-04T10:13:17;10.30;;;3.73;;
35743;SDS011;21867;52.012;4.324;2023-02-04T10:15:45;16.63;;;3.70;;
35743;SDS011;21867;52.012;4.324;2023-02-04T10:18:23;10.47;;;4.23;;
35743;SDS011;21867;52.012;4.324;2023-02-04T10:20:51;14.73;;;4.30;;
35743;SDS011;21867;52.012;4.324;2023-02-04T10:23:21;16.80;;;5.33;;
35743;SDS011;21867;52.012;4.324;2023-02-04T10:25:50;13.57;;;5.20;;
35743;SDS011;21867;52.012;4.324;2023-02-04T10:28:17;17.53;;;5.40;;
35743;SDS011;21867;52.012;4.324;2023-02-04T10:30:44;13.70;;;4.73;;
35743;SDS011;21867;52.012;4.324;2023-02-04T10:35:59;13.67;;;4.53;;
35743;SDS011;21867;52.012;4.324;2023-02-04T10:38:26;16.00;;;5.90;;
35743;SDS011;21867;52.012;4.324;2023-02-04T10:41:01;14.00;;;4.93;;
35743;SDS011;21867;52.012;4.324;2023-02-04T10:50:14;18.57;;;6.57;;
35743;SDS011;21867;52.012;4.324;2023-02-04T10:52:43;15.67;;;6.33;;
35743;SDS011;21867;52.012;4.324;2023-02-04T10:55:12;22.60;;;6.60;;
35743;SDS011;21867;52.012;4.324;2023-02-04T10:57:42;17.90;;;7.90;;
35743;SDS011;21867;52.012;4.324;2023-02-04T11:00:13;17.17;;;6.60;;
35743;SDS011;21867;52.012;4.324;2023-02-04T11:05:30;13.50;;;6.80;;
35743;SDS011;21867;52.012;4.324;2023-02-04T11:07:58;16.97;;;5.90;;
35743;SDS011;21867;52.012;4.324;2023-02-04T11:10:27;14.83;;;5.70;;
35743;SDS011;21867;52.012;4.324;2023-02-04T11:18:53;12.23;;;5.00;;
35743;SDS011;21867;52.012;4.324;2023-02-04T11:21:22;13.97;;;5.50;;
35743;SDS011;21867;52.012;4.324;2023-02-04T11:23:49;21.30;;;9.53;;
35743;SDS011;21867;52.012;4.324;2023-02-04T11:26:17;18.37;;;6.73;;
35743;SDS011;21867;52.012;4.324;2023-02-04T11:28:55;16.90;;;7.10;;
35743;SDS011;21867;52.012;4.324;2023-02-04T11:31:44;17.97;;;7.33;;
35743;SDS011;21867;52.012;4.324;2023-02-04T11:34:31;19.27;;;7.70;;
35743;SDS011;21867;52.012;4.324;2023-02-04T11:37:17;15.83;;;7.53;;
35743;SDS011;21867;52.012;4.324;2023-02-04T11:39:44;16.83;;;7.60;;
35743;SDS011;21867;52.012;4.324;2023-02-04T11:42:19;17.73;;;7.17;;
35743;SDS011;21867;52.012;4.324;2023-02-04T11:47:49;14.67;;;6.50;;
35743;SDS011;21867;52.012;4.324;2023-02-04T11:50:21;13.17;;;6.30;;
35743;SDS011;21867;52.012;4.324;2023-02-04T11:52:49;20.90;;;6.03;;
35743;SDS011;21867;52.012;4.324;2023-02-04T11:55:16;14.43;;;6.03;;
35743;SDS011;21867;52.012;4.324;2023-02-04T11:57:43;12.47;;;5.73;;
35743;SDS011;21867;52.012;4.324;2023-02-04T12:00:11;16.17;;;6.40;;
35743;SDS011;21867;52.012;4.324;2023-02-04T12:05:11;11.57;;;6.30;;
35743;SDS011;21867;52.012;4.324;2023-02-04T12:07:40;22.90;;;7.10;;
35743;SDS011;21867;52.012;4.324;2023-02-04T12:10:11;13.40;;;6.07;;
35743;SDS011;21867;52.012;4.324;2023-02-04T12:12:42;18.17;;;6.73;;
35743;SDS011;21867;52.012;4.324;2023-02-04T12:15:14;10.87;;;4.77;;
35743;SDS011;21867;52.012;4.324;2023-02-04T12:24:03;9.93;;;6.13;;
35743;SDS011;21867;52.012;4.324;2023-02-04T12:26:30;14.53;;;6.17;;
35743;SDS011;21867;52.012;4.324;2023-02-04T12:28:58;9.47;;;4.87;;
35743;SDS011;21867;52.012;4.324;2023-02-04T12:31:25;17.37;;;6.23;;
35743;SDS011;21867;52.012;4.324;2023-02-04T12:33:52;10.00;;;5.97;;
35743;SDS011;21867;52.012;4.324;2023-02-04T12:36:20;20.70;;;6.73;;
35743;SDS011;21867;52.012;4.324;2023-02-04T12:38:48;26.17;;;7.90;;
35743;SDS011;21867;52.012;4.324;2023-02-04T12:41:17;13.90;;;6.07;;
35743;SDS011;21867;52.012;4.324;2023-02-04T12:43:44;20.57;;;7.60;;
35743;SDS011;21867;52.012;4.324;2023-02-04T12:46:11;17.53;;;7.07;;
35743;SDS011;21867;52.012;4.324;2023-02-04T12:48:39;12.10;;;5.37;;
35743;SDS011;21867;52.012;4.324;2023-02-04T12:51:06;12.60;;;5.17;;
35743;SDS011;21867;52.012;4.324;2023-02-04T12:53:33;12.63;;;5.60;;
35743;SDS011;21867;52.012;4.324;2023-02-04T12:56:01;18.37;;;5.80;;
35743;SDS011;21867;52.012;4.324;2023-02-04T12:58:30;19.37;;;7.83;;
35743;SDS011;21867;52.012;4.324;2023-02-04T13:00:57;16.80;;;5.97;;
35743;SDS011;21867;52.012;4.324;2023-02-04T13:03:25;17.20;;;6.90;;
35743;SDS011;21867;52.012;4.324;2023-02-04T13:05:52;13.20;;;7.37;;
35743;SDS011;21867;52.012;4.324;2023-02-04T13:08:19;13.97;;;6.90;;
35743;SDS011;21867;52.012;4.324;2023-02-04T13:10:46;19.83;;;7.93;;
35743;SDS011;21867;52.012;4.324;2023-02-04T13:13:14;13.97;;;7.27;;
35743;SDS011;21867;52.012;4.324;2023-02-04T13:15:42;19.23;;;8.03;;
35743;SDS011;21867;52.012;4.324;2023-02-04T13:18:10;14.43;;;7.20;;
35743;SDS011;21867;52.012;4.324;2023-02-04T13:20:37;14.00;;;7.80;;
35743;SDS011;21867;52.012;4.324;2023-02-04T13:25:46;17.33;;;9.80;;
35743;SDS011;21867;52.012;4.324;2023-02-04T13:28:14;14.73;;;9.57;;
35743;SDS011;21867;52.012;4.324;2023-02-04T13:30:43;18.27;;;9.70;;
35743;SDS011;21867;52.012;4.324;2023-02-04T13:33:10;20.10;;;9.87;;
35743;SDS011;21867;52.012;4.324;2023-02-04T13:35:37;17.33;;;9.27;;
35743;SDS011;21867;52.012;4.324;2023-02-04T13:41:30;16.13;;;9.63;;
35743;SDS011;21867;52.012;4.324;2023-02-04T13:43:58;21.13;;;10.37;;
35743;SDS011;21867;52.012;4.324;2023-02-04T13:46:27;19.23;;;9.70;;
35743;SDS011;21867;52.012;4.324;2023-02-04T13:48:54;13.47;;;8.00;;
35743;SDS011;21867;52.012;4.324;2023-02-04T13:51:21;13.50;;;7.83;;
35743;SDS011;21867;52.012;4.324;2023-02-04T13:53:49;14.83;;;8.87;;
35743;SDS011;21867;52.012;4.324;2023-02-04T13:56:16;12.80;;;8.27;;
35743;SDS011;21867;52.012;4.324;2023-02-04T13:58:43;15.20;;;8.70;;
35743;SDS011;21867;52.012;4.324;2023-02-04T14:01:11;14.97;;;9.83;;
35743;SDS011;21867;52.012;4.324;2023-02-04T14:03:39;16.83;;;10.97;;
35743;SDS011;21867;52.012;4.324;2023-02-04T14:06:07;16.93;;;11.20;;
35743;SDS011;21867;52.012;4.324;2023-02-04T14:08:35;17.90;;;10.17;;
35743;SDS011;21867;52.012;4.324;2023-02-04T14:11:03;14.37;;;8.13;;
35743;SDS011;21867;52.012;4.324;2023-02-04T14:13:30;15.33;;;9.60;;
35743;SDS011;21867;52.012;4.324;2023-02-04T14:15:58;20.30;;;12.00;;
35743;SDS011;21867;52.012;4.324;2023-02-04T14:18:25;18.80;;;11.27;;
35743;SDS011;21867;52.012;4.324;2023-02-04T14:20:54;17.57;;;11.27;;
35743;SDS011;21867;52.012;4.324;2023-02-04T14:23:21;18.70;;;11.43;;
35743;SDS011;21867;52.012;4.324;2023-02-04T14:25:49;14.07;;;10.33;;
35743;SDS011;21867;52.012;4.324;2023-02-04T14:28:16;23.87;;;10.77;;
35743;SDS011;21867;52.012;4.324;2023-02-04T14:30:43;17.27;;;10.70;;
35743;SDS011;21867;52.012;4.324;2023-02-04T14:33:11;16.30;;;9.33;;
35743;SDS011;21867;52.012;4.324;2023-02-04T14:35:38;23.27;;;10.93;;
35743;SDS011;21867;52.012;4.324;2023-02-04T14:38:06;15.50;;;10.43;;
35743;SDS011;21867;52.012;4.324;2023-02-04T14:40:34;13.93;;;10.70;;
35743;SDS011;21867;52.012;4.324;2023-02-04T14:43:04;15.63;;;11.43;;
35743;SDS011;21867;52.012;4.324;2023-02-04T14:45:32;16.67;;;11.53;;
35743;SDS011;21867;52.012;4.324;2023-02-04T14:47:59;21.00;;;12.40;;
35743;SDS011;21867;52.012;4.324;2023-02-04T14:50:26;17.37;;;10.77;;
35743;SDS011;21867;52.012;4.324;2023-02-04T14:56:09;15.67;;;9.83;;
35743;SDS011;21867;52.012;4.324;2023-02-04T14:58:36;23.63;;;12.40;;
35743;SDS011;21867;52.012;4.324;2023-02-04T15:01:03;15.00;;;9.63;;
35743;SDS011;21867;52.012;4.324;2023-02-04T15:03:31;20.63;;;13.57;;
35743;SDS011;21867;52.012;4.324;2023-02-04T15:05:58;19.23;;;11.33;;
35743;SDS011;21867;52.012;4.324;2023-02-04T15:08:25;13.17;;;11.50;;
35743;SDS011;21867;52.012;4.324;2023-02-04T15:10:53;20.97;;;12.20;;
35743;SDS011;21867;52.012;4.324;2023-02-04T15:13:22;20.33;;;12.83;;
35743;SDS011;21867;52.012;4.324;2023-02-04T15:15:49;16.00;;;10.90;;
35743;SDS011;21867;52.012;4.324;2023-02-04T15:18:17;26.73;;;14.40;;
35743;SDS011;21867;52.012;4.324;2023-02-04T15:20:44;18.90;;;13.30;;
35743;SDS011;21867;52.012;4.324;2023-02-04T15:23:11;19.53;;;11.77;;
35743;SDS011;21867;52.012;4.324;2023-02-04T15:25:39;14.17;;;10.70;;
35743;SDS011;21867;52.012;4.324;2023-02-04T15:28:06;16.73;;;11.43;;
35743;SDS011;21867;52.012;4.324;2023-02-04T15:30:38;17.23;;;12.93;;
35743;SDS011;21867;52.012;4.324;2023-02-04T15:33:05;23.27;;;14.07;;
35743;SDS011;21867;52.012;4.324;2023-02-04T15:35:32;20.30;;;13.07;;
35743;SDS011;21867;52.012;4.324;2023-02-04T15:38:00;20.63;;;12.93;;
35743;SDS011;21867;52.012;4.324;2023-02-04T15:40:27;14.60;;;12.90;;
35743;SDS011;21867;52.012;4.324;2023-02-04T15:42:54;15.93;;;12.17;;
35743;SDS011;21867;52.012;4.324;2023-02-04T15:45:22;12.30;;;8.63;;
35743;SDS011;21867;52.012;4.324;2023-02-04T15:47:50;16.70;;;10.67;;
35743;SDS011;21867;52.012;4.324;2023-02-04T15:50:17;14.03;;;11.70;;
35743;SDS011;21867;52.012;4.324;2023-02-04T15:52:45;17.53;;;11.87;;
35743;SDS011;21867;52.012;4.324;2023-02-04T15:55:12;16.87;;;12.37;;
35743;SDS011;21867;52.012;4.324;2023-02-04T15:57:39;14.80;;;11.23;;
35743;SDS011;21867;52.012;4.324;2023-02-04T16:00:07;15.83;;;11.43;;
35743;SDS011;21867;52.012;4.324;2023-02-04T16:02:34;15.03;;;12.43;;
35743;SDS011;21867;52.012;4.324;2023-02-04T16:05:03;20.83;;;11.67;;
35743;SDS011;21867;52.012;4.324;2023-02-04T16:07:31;13.67;;;10.43;;
35743;SDS011;21867;52.012;4.324;2023-02-04T16:09:58;16.60;;;12.10;;
35743;SDS011;21867;52.012;4.324;2023-02-04T16:12:40;16.03;;;11.03;;
35743;SDS011;21867;52.012;4.324;2023-02-04T16:15:08;17.77;;;11.10;;
35743;SDS011;21867;52.012;4.324;2023-02-04T16:17:36;16.83;;;11.33;;
35743;SDS011;21867;52.012;4.324;2023-02-04T16:20:05;15.30;;;10.40;;
35743;SDS011;21867;52.012;4.324;2023-02-04T16:22:44;18.90;;;11.20;;
35743;SDS011;21867;52.012;4.324;2023-02-04T16:29:10;16.33;;;12.00;;
35743;SDS011;21867;52.012;4.324;2023-02-04T16:31:38;16.50;;;10.70;;
35743;SDS011;21867;52.012;4.324;2023-02-04T16:34:05;13.87;;;11.17;;
35743;SDS011;21867;52.012;4.324;2023-02-04T16:36:34;10.83;;;9.73;;
35743;SDS011;21867;52.012;4.324;2023-02-04T16:39:01;14.70;;;11.30;;
35743;SDS011;21867;52.012;4.324;2023-02-04T16:41:28;12.17;;;10.53;;
35743;SDS011;21867;52.012;4.324;2023-02-04T16:43:56;10.97;;;9.63;;
35743;SDS011;21867;52.012;4.324;2023-02-04T16:46:23;10.80;;;9.80;;
35743;SDS011;21867;52.012;4.324;2023-02-04T16:48:50;10.90;;;9.57;;
35743;SDS011;21867;52.012;4.324;2023-02-04T16:51:17;12.43;;;8.97;;
35743;SDS011;21867;52.012;4.324;2023-02-04T16:53:46;14.83;;;9.43;;
35743;SDS011;21867;52.012;4.324;2023-02-04T16:56:13;9.73;;;8.73;;
35743;SDS011;21867;52.012;4.324;2023-02-04T16:58:41;14.00;;;8.93;;
35743;SDS011;21867;52.012;4.324;2023-02-04T17:01:08;13.37;;;9.40;;
35743;SDS011;21867;52.012;4.324;2023-02-04T17:03:35;13.00;;;9.20;;
35743;SDS011;21867;52.012;4.324;2023-02-04T17:06:03;16.27;;;10.50;;
35743;SDS011;21867;52.012;4.324;2023-02-04T17:08:30;13.00;;;10.60;;
35743;SDS011;21867;52.012;4.324;2023-02-04T17:10:59;15.10;;;10.80;;
35743;SDS011;21867;52.012;4.324;2023-02-04T17:13:27;12.70;;;10.37;;
35743;SDS011;21867;52.012;4.324;2023-02-04T17:15:54;10.50;;;9.37;;
35743;SDS011;21867;52.012;4.324;2023-02-04T17:18:21;20.20;;;11.67;;
35743;SDS011;21867;52.012;4.324;2023-02-04T17:20:49;13.73;;;11.17;;
35743;SDS011;21867;52.012;4.324;2023-02-04T17:23:16;14.97;;;10.57;;
35743;SDS011;21867;52.012;4.324;2023-02-04T17:25:43;13.60;;;11.27;;
35743;SDS011;21867;52.012;4.324;2023-02-04T17:28:12;16.40;;;10.97;;
35743;SDS011;21867;52.012;4.324;2023-02-04T17:30:39;14.50;;;11.67;;
35743;SDS011;21867;52.012;4.324;2023-02-04T17:33:06;15.50;;;11.87;;
35743;SDS011;21867;52.012;4.324;2023-02-04T17:35:34;14.23;;;11.50;;
35743;SDS011;21867;52.012;4.324;2023-02-04T17:38:01;17.23;;;12.17;;
35743;SDS011;21867;52.012;4.324;2023-02-04T17:40:29;18.77;;;12.33;;
35743;SDS011;21867;52.012;4.324;2023-02-04T17:42:56;18.73;;;12.80;;